createdAt,value
2024-01-08T00:00:11.343Z,19.88
2024-01-08T00:02:39.365Z,19.88
2024-01-08T00:05:07.768Z,19.89
2024-01-08T00:07:35.802Z,19.85
2024-01-08T00:10:03.881Z,19.80
2024-01-08T00:12:34.765Z,19.75
2024-01-08T00:15:04.581Z,19.74
2024-01-08T00:17:32.786Z,19.70
2024-01-08T00:20:03.603Z,19.67
2024-01-08T00:22:34.428Z,19.65
2024-01-08T00:25:02.488Z,19.66
2024-01-08T00:27:30.483Z,19.65
2024-01-08T00:29:58.411Z,19.65
2024-01-08T00:32:28.165Z,19.65
2024-01-08T00:34:56.569Z,19.63
2024-01-08T00:37:27.533Z,19.62
2024-01-08T00:39:55.528Z,19.63
2024-01-08T00:42:23.517Z,19.63
2024-01-08T00:44:51.684Z,19.63
2024-01-08T00:47:22.209Z,19.62
2024-01-08T00:49:51.763Z,19.59
2024-01-08T00:52:21.199Z,19.61
2024-01-08T00:54:51.723Z,19.59
2024-01-08T00:57:19.698Z,19.57
2024-01-08T00:59:47.765Z,19.56
2024-01-08T01:02:15.848Z,19.55
2024-01-08T01:04:44.056Z,19.54
2024-01-08T01:07:13.661Z,19.53
2024-01-08T01:09:41.650Z,19.52
2024-01-08T01:12:09.657Z,19.51
2024-01-08T01:14:37.912Z,19.50
2024-01-08T01:17:06.108Z,19.51
2024-01-08T01:19:34.548Z,19.51
2024-01-08T01:22:02.587Z,19.49
2024-01-08T01:24:34.693Z,19.49
2024-01-08T01:27:02.792Z,19.48
2024-01-08T01:29:30.946Z,19.48
2024-01-08T01:31:59.017Z,19.48
2024-01-08T01:34:27.403Z,19.44
2024-01-08T01:36:55.378Z,19.45
2024-01-08T01:39:23.456Z,19.44
2024-01-08T01:41:54.529Z,19.44
2024-01-08T01:44:23.201Z,19.42
2024-01-08T01:46:53.008Z,19.42
2024-01-08T01:49:23.364Z,19.40
2024-01-08T01:51:52.897Z,19.40
2024-01-08T01:54:24.047Z,19.41
2024-01-08T01:56:55.673Z,19.38
2024-01-08T01:59:25.381Z,19.36
2024-01-08T02:01:53.845Z,19.35
2024-01-08T02:04:24.262Z,19.35
2024-01-08T02:06:53.580Z,19.33
2024-01-08T02:09:21.664Z,19.34
2024-01-08T02:11:49.621Z,19.34
2024-01-08T02:14:18.987Z,19.33
2024-01-08T02:16:47.181Z,19.32
2024-01-08T02:19:17.644Z,19.30
2024-01-08T02:21:45.783Z,19.30
2024-01-08T02:24:15.813Z,19.29
2024-01-08T02:26:48.415Z,19.28
2024-01-08T02:29:16.960Z,19.27
2024-01-08T02:31:44.909Z,19.28
2024-01-08T02:34:15.550Z,19.27
2024-01-08T02:36:43.567Z,19.29
2024-01-08T02:39:11.571Z,19.28
2024-01-08T02:41:40.968Z,19.28
2024-01-08T02:44:09.035Z,19.27
2024-01-08T02:46:37.066Z,19.26
2024-01-08T02:49:05.078Z,19.25
2024-01-08T02:51:33.113Z,19.23
2024-01-08T02:54:01.065Z,19.25
2024-01-08T02:56:29.392Z,19.24
2024-01-08T02:58:58.928Z,19.22
2024-01-08T03:01:27.640Z,19.22
2024-01-08T03:03:55.750Z,19.21
2024-01-08T03:06:23.888Z,19.22
2024-01-08T03:08:55.317Z,19.19
2024-01-08T03:11:23.426Z,19.20
2024-01-08T03:13:51.464Z,19.19
2024-01-08T03:16:20.868Z,19.19
2024-01-08T03:18:49.022Z,19.19
2024-01-08T03:21:19.208Z,19.19
2024-01-08T03:23:47.225Z,19.20
2024-01-08T03:26:15.412Z,19.19
2024-01-08T03:28:43.409Z,19.18
2024-01-08T03:31:11.379Z,19.18
2024-01-08T03:33:40.763Z,19.19
2024-01-08T03:36:11.715Z,19.17
2024-01-08T03:38:39.733Z,19.16
2024-01-08T03:41:10.699Z,19.15
2024-01-08T03:43:38.716Z,19.13
2024-01-08T03:46:06.832Z,19.12
2024-01-08T03:48:34.770Z,19.12
2024-01-08T03:51:04.191Z,19.10
2024-01-08T03:53:32.337Z,19.09
2024-01-08T03:56:00.431Z,19.09
2024-01-08T03:58:28.460Z,19.09
2024-01-08T04:00:56.478Z,19.09
2024-01-08T04:03:24.678Z,19.08
2024-01-08T04:05:52.964Z,19.07
2024-01-08T04:08:22.669Z,19.07
2024-01-08T04:10:50.754Z,19.07
2024-01-08T04:13:18.757Z,19.05
2024-01-08T04:15:46.873Z,19.05
2024-01-08T04:18:16.451Z,19.06
2024-01-08T04:20:47.245Z,19.04
2024-01-08T04:23:17.532Z,19.02
2024-01-08T04:25:46.882Z,19.04
2024-01-08T04:28:14.921Z,19.03
2024-01-08T04:30:43.001Z,19.02
2024-01-08T04:33:12.506Z,19.03
2024-01-08T04:35:40.554Z,19.01
2024-01-08T04:38:08.558Z,19.00
2024-01-08T04:40:36.647Z,18.98
2024-01-08T04:43:08.509Z,18.99
2024-01-08T04:45:36.658Z,19.00
2024-01-08T04:48:05.786Z,18.99
2024-01-08T04:50:33.798Z,18.98
2024-01-08T04:53:01.857Z,18.98
2024-01-08T04:55:29.849Z,18.97
2024-01-08T04:58:00.604Z,18.97
2024-01-08T05:00:30.874Z,18.96
2024-01-08T05:02:59.035Z,18.96
2024-01-08T05:05:27.090Z,18.95
2024-01-08T05:07:55.379Z,18.93
2024-01-08T05:10:23.343Z,18.91
2024-01-08T05:12:51.419Z,18.90
2024-01-08T05:15:19.422Z,18.90
2024-01-08T05:17:48.890Z,18.90
2024-01-08T05:20:17.096Z,18.91
2024-01-08T05:22:45.164Z,18.92
2024-01-08T05:25:13.086Z,18.94
2024-01-08T05:27:43.371Z,18.95
2024-01-08T05:30:12.345Z,18.96
2024-01-08T05:32:40.518Z,18.96
2024-01-08T05:35:10.492Z,18.97
2024-01-08T05:37:38.503Z,18.97
2024-01-08T05:40:07.759Z,18.97
2024-01-08T05:42:38.739Z,18.96
2024-01-08T05:45:08.661Z,18.96
2024-01-08T05:47:37.003Z,18.96
2024-01-08T05:50:05.917Z,18.95
2024-01-08T05:52:35.342Z,18.97
2024-01-08T05:55:03.320Z,18.96
2024-01-08T05:57:34.084Z,18.95
2024-01-08T06:00:02.067Z,18.95
2024-01-08T06:02:30.003Z,18.95
2024-01-08T06:04:57.994Z,18.95
2024-01-08T06:07:26.006Z,18.95
2024-01-08T06:09:57.968Z,18.93
2024-01-08T06:12:26.069Z,18.94
2024-01-08T06:14:56.912Z,18.94
2024-01-08T06:17:24.946Z,18.93
2024-01-08T06:19:55.620Z,18.95
2024-01-08T06:22:23.696Z,18.94
2024-01-08T06:24:51.862Z,18.94
2024-01-08T06:27:21.169Z,18.97
2024-01-08T06:29:50.401Z,18.96
2024-01-08T06:32:18.491Z,18.96
2024-01-08T06:34:46.489Z,18.95
2024-01-08T06:37:14.472Z,18.94
2024-01-08T06:39:42.458Z,18.92
2024-01-08T06:42:12.730Z,18.90
2024-01-08T06:44:42.187Z,18.91
2024-01-08T06:47:10.251Z,18.91
2024-01-08T06:49:40.925Z,18.91
2024-01-08T06:52:09.688Z,18.93
2024-01-08T06:54:38.588Z,18.93
2024-01-08T06:57:06.976Z,18.95
2024-01-08T06:59:35.086Z,18.95
2024-01-08T07:02:04.900Z,18.95
2024-01-08T07:04:32.909Z,18.93
2024-01-08T07:07:00.937Z,18.94
2024-01-08T07:09:28.949Z,18.96
2024-01-08T07:11:56.983Z,19.01
2024-01-08T07:14:25.022Z,19.02
2024-01-08T07:16:53.498Z,19.04
2024-01-08T07:19:22.932Z,19.05
2024-01-08T07:21:51.026Z,19.06
2024-01-08T07:24:20.092Z,19.05
2024-01-08T07:26:48.156Z,19.07
2024-01-08T07:29:16.239Z,19.10
2024-01-08T07:31:44.294Z,19.13
2024-01-08T07:34:12.351Z,19.14
2024-01-08T07:36:41.830Z,19.15
2024-01-08T07:39:09.818Z,19.14
2024-01-08T07:41:37.941Z,19.15
2024-01-08T07:44:06.259Z,19.16
2024-01-08T07:46:34.457Z,19.15
2024-01-08T07:49:02.485Z,19.16
2024-01-08T07:51:32.946Z,19.15
2024-01-08T07:54:03.477Z,19.15
2024-01-08T07:56:31.586Z,19.15
2024-01-08T07:59:03.484Z,19.19
2024-01-08T08:01:32.088Z,19.22
2024-01-08T08:04:03.117Z,19.28
2024-01-08T08:06:32.286Z,19.28
2024-01-08T08:09:00.705Z,19.29
2024-01-08T08:11:30.120Z,19.27
2024-01-08T08:13:58.207Z,19.26
2024-01-08T08:16:26.348Z,19.25
2024-01-08T08:18:54.502Z,19.25
2024-01-08T08:21:22.604Z,19.25
2024-01-08T08:23:51.534Z,19.26
2024-01-08T08:26:20.346Z,19.26
2024-01-08T08:28:49.926Z,19.26
2024-01-08T08:31:18.055Z,19.27
2024-01-08T08:33:46.064Z,19.26
2024-01-08T08:36:16.406Z,19.27
2024-01-08T08:38:45.560Z,19.29
2024-01-08T08:41:13.671Z,19.32
2024-01-08T08:43:41.744Z,19.33
2024-01-08T08:46:11.124Z,19.33
2024-01-08T08:48:39.223Z,19.34
2024-01-08T08:51:07.366Z,19.34
2024-01-08T08:53:38.820Z,19.34
2024-01-08T08:56:08.227Z,19.34
2024-01-08T08:58:36.255Z,19.34
2024-01-08T09:01:04.590Z,19.34
2024-01-08T09:03:36.269Z,19.33
2024-01-08T09:06:10.203Z,19.32
2024-01-08T09:08:38.448Z,19.31
2024-01-08T09:11:06.603Z,19.30
2024-01-08T09:13:34.689Z,19.28
2024-01-08T09:16:02.663Z,19.28
2024-01-08T09:18:34.643Z,19.29
2024-01-08T09:21:02.804Z,19.29
2024-01-08T09:23:30.996Z,19.30
2024-01-08T09:25:59.009Z,19.28
2024-01-08T09:28:27.093Z,19.28
2024-01-08T09:30:55.510Z,19.29
2024-01-08T09:33:23.683Z,19.30
2024-01-08T09:35:53.170Z,19.32
2024-01-08T09:38:21.801Z,19.32
2024-01-08T09:40:50.761Z,19.32
2024-01-08T09:43:20.289Z,19.32
2024-01-08T09:46:01.930Z,19.30
2024-01-08T09:48:31.239Z,19.29
2024-01-08T09:51:02.221Z,19.26
2024-01-08T09:53:31.861Z,19.24
2024-01-08T09:56:03.695Z,19.24
2024-01-08T09:58:31.796Z,19.24
2024-01-08T10:00:59.813Z,19.21
2024-01-08T10:03:30.577Z,19.22
2024-01-08T10:05:58.764Z,19.22
2024-01-08T10:08:32.117Z,19.21
2024-01-08T10:11:00.532Z,19.20
2024-01-08T10:13:28.945Z,19.19
2024-01-08T10:15:57.081Z,19.19
2024-01-08T10:18:27.355Z,19.21
2024-01-08T10:21:10.829Z,19.22
2024-01-08T10:23:40.554Z,19.21
2024-01-08T10:26:10.584Z,19.23
2024-01-08T10:28:39.838Z,19.21
2024-01-08T10:31:10.123Z,19.22
2024-01-08T10:33:38.841Z,19.22
2024-01-08T10:36:08.993Z,19.23
2024-01-08T10:38:37.451Z,19.26
2024-01-08T10:41:07.331Z,19.29
2024-01-08T10:43:35.518Z,18.94
2024-01-08T10:46:05.428Z,18.81
2024-01-08T10:48:41.513Z,18.66
2024-01-08T10:51:10.743Z,18.73
2024-01-08T10:53:46.480Z,18.83
2024-01-08T10:56:17.831Z,18.91
2024-01-08T10:58:54.024Z,19.00
2024-01-08T11:01:25.153Z,19.06
2024-01-08T11:03:53.596Z,19.17
2024-01-08T11:06:24.147Z,19.21
2024-01-08T11:08:52.363Z,19.26
2024-01-08T11:11:22.892Z,19.30
2024-01-08T11:13:51.697Z,19.35
2024-01-08T11:16:25.597Z,19.40
2024-01-08T11:18:53.817Z,19.43
2024-01-08T11:21:28.518Z,19.45
2024-01-08T11:24:00.263Z,19.47
2024-01-08T11:26:29.673Z,19.47
2024-01-08T11:29:07.124Z,19.49
2024-01-08T11:32:15.867Z,19.54
2024-01-08T11:34:58.985Z,19.54
2024-01-08T11:37:37.006Z,19.56
2024-01-08T11:40:24.068Z,19.55
2024-01-08T11:42:54.842Z,19.56
2024-01-08T11:45:23.031Z,19.55
2024-01-08T11:47:51.325Z,19.56
2024-01-08T11:50:19.994Z,19.55
2024-01-08T11:52:49.585Z,19.56
2024-01-08T11:55:18.426Z,19.55
2024-01-08T11:57:49.856Z,19.56
2024-01-08T12:00:21.410Z,19.58
2024-01-08T12:02:49.700Z,19.59
2024-01-08T12:05:21.772Z,19.57
2024-01-08T12:07:53.928Z,19.58
2024-01-08T12:10:22.622Z,19.58
2024-01-08T12:12:52.806Z,19.54
2024-01-08T12:15:22.790Z,19.54
2024-01-08T12:17:50.946Z,19.54
2024-01-08T12:20:19.253Z,19.52
2024-01-08T12:22:50.737Z,19.49
2024-01-08T12:25:18.810Z,19.49
2024-01-08T12:27:49.887Z,19.48
2024-01-08T12:30:18.363Z,19.47
2024-01-08T12:32:47.864Z,19.46
2024-01-08T12:35:19.046Z,19.50
2024-01-08T12:37:47.359Z,19.52
2024-01-08T12:40:19.783Z,19.52
2024-01-08T12:42:49.910Z,19.53
2024-01-08T12:45:22.023Z,19.54
2024-01-08T12:47:54.782Z,19.55
2024-01-08T12:50:23.188Z,19.54
2024-01-08T12:52:51.238Z,19.54
2024-01-08T12:55:19.199Z,19.54
2024-01-08T12:57:47.261Z,19.52
2024-01-08T13:00:15.852Z,19.50
2024-01-08T13:02:44.012Z,19.49
2024-01-08T13:05:15.050Z,19.48
2024-01-08T13:07:43.831Z,19.48
2024-01-08T13:10:12.098Z,19.49
2024-01-08T13:12:41.258Z,19.49
2024-01-08T13:15:10.107Z,19.49
2024-01-08T13:17:38.214Z,19.49
2024-01-08T13:20:21.493Z,19.49
2024-01-08T13:22:55.805Z,19.50
2024-01-08T13:25:24.658Z,19.49
2024-01-08T13:27:52.710Z,19.50
2024-01-08T13:30:21.604Z,19.49
2024-01-08T13:32:50.161Z,19.50
2024-01-08T13:35:18.619Z,19.50
2024-01-08T13:37:47.138Z,19.50
2024-01-08T13:40:16.618Z,19.49
2024-01-08T13:42:45.929Z,19.48
2024-01-08T13:45:14.032Z,19.46
2024-01-08T13:47:42.225Z,19.46
2024-01-08T13:50:11.246Z,19.46
2024-01-08T13:52:39.754Z,19.44
2024-01-08T13:55:10.853Z,19.43
2024-01-08T13:57:40.459Z,19.41
2024-01-08T14:00:09.440Z,19.41
2024-01-08T14:02:37.859Z,19.41
2024-01-08T14:05:07.852Z,19.40
2024-01-08T14:07:36.023Z,19.40
2024-01-08T14:10:04.066Z,19.39
2024-01-08T14:12:32.094Z,19.36
2024-01-08T14:15:01.582Z,19.35
2024-01-08T14:17:29.772Z,19.36
2024-01-08T14:19:58.069Z,19.36
2024-01-08T14:22:26.205Z,19.34
2024-01-08T14:24:54.177Z,19.36
2024-01-08T14:27:22.289Z,19.37
2024-01-08T14:29:51.709Z,19.40
2024-01-08T14:32:21.500Z,19.40
2024-01-08T14:34:49.610Z,19.40
2024-01-08T14:37:18.037Z,19.40
2024-01-08T14:39:46.526Z,19.41
2024-01-08T14:42:14.507Z,19.42
2024-01-08T14:44:42.662Z,19.41
2024-01-08T14:47:10.731Z,19.41
2024-01-08T14:49:40.542Z,19.40
2024-01-08T14:52:08.572Z,19.41
2024-01-08T14:54:38.702Z,19.41
2024-01-08T14:57:07.733Z,19.40
2024-01-08T14:59:42.728Z,19.40
2024-01-08T15:02:13.525Z,19.40
2024-01-08T15:04:42.911Z,19.39
2024-01-08T15:07:11.058Z,19.38
2024-01-08T15:09:39.069Z,19.37
2024-01-08T15:12:07.769Z,19.37
2024-01-08T15:14:35.845Z,19.37
2024-01-08T15:17:04.169Z,19.36
2024-01-08T15:19:32.258Z,19.37
2024-01-08T15:22:01.596Z,19.35
2024-01-08T15:24:30.585Z,19.37
2024-01-08T15:26:59.481Z,19.37
2024-01-08T15:29:27.444Z,19.37
2024-01-08T15:31:55.487Z,19.38
2024-01-08T15:34:23.437Z,19.37
2024-01-08T15:36:54.293Z,19.36
2024-01-08T15:39:24.051Z,19.37
2024-01-08T15:41:55.134Z,19.37
2024-01-08T15:44:23.261Z,19.38
2024-01-08T15:46:51.384Z,19.37
2024-01-08T15:49:19.844Z,19.38
2024-01-08T15:51:47.791Z,19.40
2024-01-08T15:54:15.851Z,19.41
2024-01-08T15:56:46.156Z,19.40
2024-01-08T15:59:14.441Z,19.40
2024-01-08T16:01:42.621Z,19.40
2024-01-08T16:04:10.877Z,19.40
2024-01-08T16:06:38.994Z,19.39
2024-01-08T16:09:07.343Z,19.40
2024-01-08T16:11:35.423Z,19.42
2024-01-08T16:14:04.914Z,19.36
2024-01-08T16:16:32.945Z,19.34
2024-01-08T16:19:01.222Z,19.29
2024-01-08T16:21:29.267Z,19.30
2024-01-08T16:24:05.981Z,19.34
2024-01-08T16:26:39.016Z,19.37
2024-01-08T16:29:10.206Z,19.41
2024-01-08T16:31:38.325Z,19.41
2024-01-08T16:34:06.476Z,19.40
2024-01-08T16:36:34.612Z,19.41
2024-01-08T16:39:02.753Z,19.43
2024-01-08T16:41:31.264Z,19.47
2024-01-08T16:44:01.608Z,19.48
2024-01-08T16:46:31.335Z,19.48
2024-01-08T16:48:59.529Z,19.49
2024-01-08T16:51:27.950Z,19.48
2024-01-08T16:53:55.960Z,19.48
2024-01-08T16:56:27.338Z,19.48
2024-01-08T16:58:56.024Z,19.47
2024-01-08T17:01:24.521Z,19.48
2024-01-08T17:03:56.683Z,19.46
2024-01-08T17:06:27.447Z,19.47
2024-01-08T17:09:02.728Z,19.48
2024-01-08T17:11:31.535Z,19.47
2024-01-08T17:14:02.025Z,19.48
2024-01-08T17:16:30.207Z,19.47
2024-01-08T17:18:59.687Z,19.47
2024-01-08T17:21:27.924Z,19.49
2024-01-08T17:23:56.010Z,19.50
2024-01-08T17:26:23.996Z,19.50
2024-01-08T17:28:56.080Z,19.50
2024-01-08T17:31:24.919Z,19.49
2024-01-08T17:33:55.150Z,19.51
2024-01-08T17:36:26.425Z,19.51
2024-01-08T17:38:54.593Z,19.51
2024-01-08T17:41:24.756Z,19.53
2024-01-08T17:43:53.114Z,19.55
2024-01-08T17:46:24.079Z,19.56
2024-01-08T17:48:54.280Z,19.56
2024-01-08T17:51:22.441Z,19.56
2024-01-08T17:53:54.378Z,19.57
2024-01-08T17:56:22.565Z,19.57
2024-01-08T17:58:51.802Z,19.59
2024-01-08T18:01:20.281Z,19.58
2024-01-08T18:03:48.548Z,19.61
2024-01-08T18:06:16.699Z,19.62
2024-01-08T18:08:44.873Z,19.63
2024-01-08T18:11:16.745Z,19.63
2024-01-08T18:13:47.265Z,19.64
2024-01-08T18:16:15.892Z,19.63
2024-01-08T18:18:43.941Z,19.62
2024-01-08T18:21:12.006Z,19.63
2024-01-08T18:23:40.747Z,19.65
2024-01-08T18:26:09.369Z,19.65
2024-01-08T18:28:39.444Z,19.66
2024-01-08T18:31:07.628Z,19.67
2024-01-08T18:33:36.519Z,19.68
2024-01-08T18:36:05.281Z,19.68
2024-01-08T18:38:33.935Z,19.70
2024-01-08T18:41:01.959Z,19.69
2024-01-08T18:43:29.939Z,19.71
2024-01-08T18:45:59.417Z,19.71
2024-01-08T18:48:28.755Z,19.73
2024-01-08T18:50:59.162Z,19.72
2024-01-08T18:53:31.595Z,19.73
2024-01-08T18:55:59.745Z,19.75
2024-01-08T18:58:27.712Z,19.75
2024-01-08T19:01:01.056Z,19.76
2024-01-08T19:03:30.489Z,19.76
2024-01-08T19:05:59.889Z,19.77
2024-01-08T19:08:29.520Z,19.77
2024-01-08T19:11:00.085Z,19.78
2024-01-08T19:13:28.634Z,19.81
2024-01-08T19:15:56.622Z,19.81
2024-01-08T19:18:29.325Z,19.81
2024-01-08T19:20:58.757Z,19.82
2024-01-08T19:23:27.011Z,19.83
2024-01-08T19:25:55.301Z,19.82
2024-01-08T19:28:23.326Z,19.83
2024-01-08T19:30:51.789Z,19.85
2024-01-08T19:33:20.257Z,19.83
2024-01-08T19:35:48.440Z,19.83
2024-01-08T19:38:17.974Z,19.81
2024-01-08T19:40:46.130Z,19.84
2024-01-08T19:43:16.940Z,19.83
2024-01-08T19:45:45.276Z,19.83
2024-01-08T19:48:13.831Z,19.85
2024-01-08T19:50:42.266Z,19.85
2024-01-08T19:53:10.445Z,19.85
2024-01-08T19:55:39.827Z,19.85
2024-01-08T19:58:08.018Z,19.86
2024-01-08T20:00:36.245Z,19.86
2024-01-08T20:03:04.450Z,19.86
2024-01-08T20:05:35.296Z,19.86
2024-01-08T20:08:03.630Z,19.86
2024-01-08T20:10:31.621Z,19.86
2024-01-08T20:13:01.917Z,19.88
2024-01-08T20:15:33.702Z,19.90
2024-01-08T20:18:04.185Z,19.89
2024-01-08T20:20:35.499Z,19.88
2024-01-08T20:23:08.744Z,19.88
2024-01-08T20:25:37.127Z,19.88
2024-01-08T20:28:07.172Z,19.89
2024-01-08T20:30:35.338Z,19.91
2024-01-08T20:33:04.221Z,19.91
2024-01-08T20:35:32.394Z,19.92
2024-01-08T20:38:00.379Z,19.92
2024-01-08T20:40:28.501Z,19.91
2024-01-08T20:42:56.639Z,19.91
2024-01-08T20:45:26.402Z,19.92
2024-01-08T20:47:55.378Z,19.93
2024-01-08T20:50:23.727Z,19.93
2024-01-08T20:52:54.568Z,19.94
2024-01-08T20:55:23.814Z,19.94
2024-01-08T20:57:54.936Z,19.96
2024-01-08T21:00:25.360Z,19.98
2024-01-08T21:02:53.957Z,20.00
2024-01-08T21:05:22.151Z,20.01
2024-01-08T21:07:53.022Z,20.01
2024-01-08T21:10:21.117Z,20.00
2024-01-08T21:12:51.193Z,19.99
2024-01-08T21:15:19.314Z,19.99
2024-01-08T21:17:48.788Z,19.98
2024-01-08T21:20:17.410Z,19.98
2024-01-08T21:22:45.543Z,19.98
2024-01-08T21:25:13.629Z,19.98
2024-01-08T21:27:45.223Z,19.97
2024-01-08T21:30:14.154Z,19.70
2024-01-08T21:32:42.281Z,19.57
2024-01-08T21:35:14.736Z,19.59
2024-01-08T21:37:45.533Z,19.65
2024-01-08T21:40:13.790Z,19.69
2024-01-08T21:42:44.698Z,19.75
2024-01-08T21:45:15.832Z,19.77
2024-01-08T21:47:44.090Z,19.80
2024-01-08T21:50:12.253Z,19.85
2024-01-08T21:52:41.621Z,19.87
2024-01-08T21:55:10.150Z,19.90
2024-01-08T21:57:38.119Z,19.90
2024-01-08T22:00:09.461Z,19.92
2024-01-08T22:02:37.705Z,19.93
2024-01-08T22:05:06.308Z,19.95
2024-01-08T22:07:35.987Z,19.96
2024-01-08T22:10:05.846Z,19.96
2024-01-08T22:12:37.335Z,19.98
2024-01-08T22:15:06.328Z,19.99
2024-01-08T22:17:37.057Z,19.99
2024-01-08T22:20:05.765Z,19.99
2024-01-08T22:22:33.864Z,19.98
2024-01-08T22:25:01.850Z,19.97
2024-01-08T22:27:31.236Z,19.93
2024-01-08T22:29:59.421Z,19.94
2024-01-08T22:32:28.050Z,19.94
2024-01-08T22:34:56.058Z,19.93
2024-01-08T22:37:24.133Z,19.94
2024-01-08T22:39:54.998Z,19.93
2024-01-08T22:42:22.984Z,19.92
2024-01-08T22:44:52.377Z,19.91
2024-01-08T22:47:20.460Z,19.91
2024-01-08T22:49:48.602Z,19.89
2024-01-08T22:52:16.655Z,19.89
2024-01-08T22:54:44.646Z,19.88
2024-01-08T22:57:12.637Z,19.87
2024-01-08T22:59:43.501Z,19.85
2024-01-08T23:02:13.125Z,19.86
2024-01-08T23:04:43.174Z,19.85
2024-01-08T23:07:11.243Z,19.84
2024-01-08T23:09:39.211Z,19.82
2024-01-08T23:12:08.042Z,19.80
2024-01-08T23:14:36.112Z,19.81
2024-01-08T23:17:04.438Z,19.81
2024-01-08T23:19:35.448Z,19.80
2024-01-08T23:22:03.535Z,19.80
2024-01-08T23:24:32.287Z,19.80
2024-01-08T23:27:02.024Z,19.79
2024-01-08T23:29:30.218Z,19.78
2024-01-08T23:31:58.128Z,19.75
2024-01-08T23:34:26.188Z,19.75
2024-01-08T23:36:55.818Z,19.75
2024-01-08T23:39:26.162Z,19.74
2024-01-08T23:41:54.287Z,19.70
2024-01-08T23:44:22.399Z,19.70
2024-01-08T23:46:59.163Z,19.67
2024-01-08T23:49:27.269Z,19.64
2024-01-08T23:51:56.697Z,19.62
2024-01-08T23:54:24.738Z,19.58
2024-01-08T23:56:52.832Z,19.56
2024-01-08T23:59:20.885Z,19.55
